Time;durP1;ratioP1;P1;durP2;ratioP2;P2;SDS_P1;SDS_P2;PMS_P1;PMS_P2;Temp;Humidity;BMP_temperature;BMP_pressure;BME280_temperature;BME280_humidity;BME280_pressure;Samples;Min_cycle;Max_cycle;Signal;HPM_P1;HPM_P2
2021/03/22 00:04:04;;;;;;;16.57;9.23;;;6.80;86.50;;;;;;10512894;28;20224;-78
2021/03/22 00:09:06;;;;;;;16.07;9.00;;;6.70;87.00;;;;;;10544639;28;20253;-79
2021/03/22 00:14:08;;;;;;;20.37;9.60;;;6.70;86.80;;;;;;10541396;28;20306;-78
2021/03/22 00:19:10;;;;;;;19.57;9.27;;;6.80;87.50;;;;;;10526336;28;20228;-78
2021/03/22 00:24:11;;;;;;;21.10;9.33;;;6.80;87.10;;;;;;10526939;28;20235;-78
2021/03/22 00:29:14;;;;;;;18.33;9.63;;;6.90;87.10;;;;;;10527369;28;20207;-76
2021/03/22 00:34:16;;;;;;;21.00;9.53;;;6.90;86.80;;;;;;10528175;28;20234;-77
2021/03/22 00:39:17;;;;;;;15.30;9.73;;;6.90;86.80;;;;;;10526592;28;20219;-77
2021/03/22 00:44:20;;;;;;;17.67;8.50;;;6.90;86.70;;;;;;10526184;28;20219;-78
2021/03/22 00:49:21;;;;;;;16.37;8.50;;;6.90;86.80;;;;;;10527425;28;20279;-77
2021/03/22 00:54:23;;;;;;;17.20;8.30;;;7.00;86.30;;;;;;10525240;28;20272;-78
2021/03/22 00:59:25;;;;;;;15.33;7.70;;;7.00;87.00;;;;;;10525390;28;20611;-78
2021/03/22 01:04:27;;;;;;;16.80;8.93;;;7.00;87.00;;;;;;10526111;28;20770;-78
2021/03/22 01:09:29;;;;;;;17.70;7.77;;;7.00;87.10;;;;;;10528283;28;20234;-77
2021/03/22 01:14:31;;;;;;;13.33;7.00;;;7.10;87.00;;;;;;10526611;28;20352;-78
2021/03/22 01:19:33;;;;;;;21.37;8.47;;;7.10;87.00;;;;;;10518099;28;20204;-79
2021/03/22 01:24:35;;;;;;;21.37;8.20;;;7.10;87.30;;;;;;10524380;28;20235;-78
2021/03/22 01:29:41;;;;;;;18.60;7.57;;;7.10;86.60;;;;;;10523959;28;20206;-77
2021/03/22 01:34:42;;;;;;;17.90;8.03;;;7.10;86.30;;;;;;10513926;28;20215;-78
2021/03/22 01:39:46;;;;;;;15.40;7.83;;;7.10;86.70;;;;;;10525254;28;20215;-79
2021/03/22 01:44:52;;;;;;;15.20;7.33;;;7.10;87.00;;;;;;10525411;28;20228;-78
2021/03/22 01:49:59;;;;;;;17.17;8.07;;;7.10;85.70;;;;;;10523452;28;20211;-80
2021/03/22 01:55:00;;;;;;;15.23;6.70;;;7.10;86.20;;;;;;10525265;28;20704;-81
2021/03/22 02:00:17;;;;;;;16.60;6.60;;;7.00;86.00;;;;;;10505691;28;20247;-80
2021/03/22 02:05:22;;;;;;;17.90;6.57;;;7.00;86.20;;;;;;10503910;28;20279;-79
2021/03/22 02:10:23;;;;;;;18.53;7.40;;;7.00;86.20;;;;;;10528472;28;20218;-78
2021/03/22 02:15:26;;;;;;;15.00;6.77;;;7.00;86.00;;;;;;10532623;28;20247;-78
2021/03/22 02:21:10;;;;;;;14.07;6.80;;;7.00;86.40;;;;;;10519451;28;20565;-78
2021/03/22 02:26:30;;;;;;;18.10;7.00;;;7.00;86.30;;;;;;10507464;22;20234;-77
2021/03/22 02:32:11;;;;;;;17.23;6.93;;;7.00;86.20;;;;;;10457808;28;20264;-78
2021/03/22 02:37:32;;;;;;;16.90;6.37;;;7.00;86.00;;;;;;10466518;28;20664;-77
2021/03/22 02:42:35;;;;;;;15.30;5.50;;;7.00;86.50;;;;;;10467679;28;20676;-78
2021/03/22 02:47:38;;;;;;;18.67;6.57;;;7.00;86.80;;;;;;10471304;28;20227;-78
2021/03/22 02:53:05;;;;;;;15.80;6.40;;;7.00;86.30;;;;;;10473599;28;20684;-77
2021/03/22 02:58:10;;;;;;;18.40;6.20;;;7.00;86.40;;;;;;10474657;28;20213;-77
2021/03/22 03:03:15;;;;;;;17.90;6.23;;;7.00;86.70;;;;;;10483628;28;20201;-77
2021/03/22 03:08:20;;;;;;;15.30;5.37;;;6.90;86.30;;;;;;10479684;28;20196;-77
2021/03/22 03:13:21;;;;;;;12.67;5.23;;;6.90;86.30;;;;;;10477640;28;20229;-77
2021/03/22 03:18:23;;;;;;;17.43;6.60;;;6.90;86.10;;;;;;10462937;28;20236;-77
2021/03/22 03:23:27;;;;;;;16.50;6.00;;;6.90;85.80;;;;;;10458991;28;20311;-77
2021/03/22 03:28:28;;;;;;;19.80;6.53;;;6.90;85.20;;;;;;10458974;28;20228;-78
2021/03/22 03:33:30;;;;;;;14.10;4.90;;;6.80;85.10;;;;;;10458000;28;20224;-77
2021/03/22 03:38:32;;;;;;;10.90;5.80;;;6.80;84.70;;;;;;10457639;28;20224;-78
2021/03/22 03:43:34;;;;;;;13.23;5.93;;;6.80;84.60;;;;;;10462541;28;20244;-78
2021/03/22 03:48:36;;;;;;;11.53;5.20;;;6.80;84.20;;;;;;10465402;28;20257;-78
2021/03/22 03:53:38;;;;;;;9.60;4.80;;;6.80;84.10;;;;;;10457612;28;20213;-79
2021/03/22 03:58:40;;;;;;;13.73;5.13;;;6.80;83.80;;;;;;10458235;28;20209;-77
2021/03/22 04:03:41;;;;;;;17.00;5.67;;;6.80;83.90;;;;;;10459408;28;20217;-78
2021/03/22 04:08:46;;;;;;;14.43;5.33;;;6.80;84.40;;;;;;10442556;28;20209;-77
2021/03/22 04:13:48;;;;;;;15.90;5.60;;;6.70;84.30;;;;;;10456588;28;20224;-78
2021/03/22 04:18:50;;;;;;;12.80;5.57;;;6.70;84.70;;;;;;10457205;28;20245;-77
2021/03/22 04:23:53;;;;;;;11.13;5.13;;;6.70;84.00;;;;;;10457866;28;20312;-78
2021/03/22 04:28:55;;;;;;;15.23;5.97;;;6.70;84.00;;;;;;10458135;28;20209;-78
2021/03/22 04:33:58;;;;;;;14.03;5.83;;;6.70;82.40;;;;;;10458964;28;20763;-78
2021/03/22 04:39:01;;;;;;;14.60;4.93;;;6.60;82.10;;;;;;10462881;28;20688;-78
2021/03/22 04:44:03;;;;;;;18.47;4.60;;;6.70;81.60;;;;;;10438930;28;20579;-78
2021/03/22 04:49:04;;;;;;;12.23;5.60;;;6.70;81.10;;;;;;10454088;28;20696;-78
2021/03/22 04:54:08;;;;;;;11.83;5.23;;;6.70;82.40;;;;;;10454724;28;20244;-78
2021/03/22 04:59:10;;;;;;;12.20;4.73;;;6.70;83.70;;;;;;10451277;28;20684;-77
2021/03/22 05:04:11;;;;;;;11.83;5.40;;;6.70;83.60;;;;;;10453652;28;20217;-78
2021/03/22 05:09:14;;;;;;;20.70;5.87;;;6.70;83.80;;;;;;10429463;28;20284;-77
2021/03/22 05:14:15;;;;;;;15.53;5.40;;;6.70;83.50;;;;;;10439195;28;20221;-78
2021/03/22 05:19:17;;;;;;;16.70;5.57;;;6.70;83.10;;;;;;10454562;28;20221;-78
2021/03/22 05:24:19;;;;;;;9.67;4.20;;;6.70;82.50;;;;;;10452151;28;20599;-77
2021/03/22 05:29:22;;;;;;;17.03;4.50;;;6.70;82.70;;;;;;10454355;28;20193;-77
2021/03/22 05:34:24;;;;;;;12.10;4.63;;;6.70;81.60;;;;;;10454413;28;20274;-78
2021/03/22 05:39:27;;;;;;;10.60;4.07;;;6.70;80.90;;;;;;10446908;28;20212;-77
2021/03/22 05:44:44;;;;;;;11.23;4.10;;;6.70;80.30;;;;;;10451849;28;20731;-77
2021/03/22 05:49:53;;;;;;;11.23;4.20;;;6.70;79.70;;;;;;10435957;28;20566;-77
2021/03/22 05:55:32;;;;;;;11.67;3.80;;;6.70;78.80;;;;;;10439400;28;20245;-77
2021/03/22 06:00:45;;;;;;;12.87;3.80;;;6.70;78.60;;;;;;10385167;28;20213;-78
2021/03/22 06:05:52;;;;;;;6.77;4.13;;;6.70;79.10;;;;;;10453687;28;20208;-78
2021/03/22 06:10:57;;;;;;;7.10;4.20;;;6.80;79.90;;;;;;10452235;28;20303;-78
2021/03/22 06:16:03;;;;;;;10.77;3.87;;;6.80;79.40;;;;;;10452931;28;20217;-78
2021/03/22 06:21:09;;;;;;;11.30;5.27;;;6.80;81.00;;;;;;10459890;28;20719;-78
2021/03/22 06:26:29;;;;;;;19.30;4.90;;;6.80;81.50;;;;;;10451062;28;20332;-78
2021/03/22 06:31:32;;;;;;;16.73;5.17;;;6.90;82.70;;;;;;10449915;28;20336;-77
2021/03/22 06:36:35;;;;;;;14.50;5.40;;;6.90;82.50;;;;;;10454966;28;20747;-78
2021/03/22 06:41:42;;;;;;;12.93;4.63;;;6.90;83.20;;;;;;10459337;28;20301;-77
2021/03/22 06:46:55;;;;;;;16.00;6.07;;;6.90;83.50;;;;;;10458837;28;20604;-78
2021/03/22 06:51:59;;;;;;;13.80;5.57;;;6.90;84.10;;;;;;10457865;28;20216;-78
2021/03/22 06:57:06;;;;;;;18.43;6.33;;;6.90;83.90;;;;;;10459981;28;20259;-79
2021/03/22 07:02:19;;;;;;;17.90;5.70;;;6.90;84.90;;;;;;10461709;28;20339;-78
2021/03/22 07:07:23;;;;;;;20.90;6.07;;;6.90;83.90;;;;;;10464097;28;20584;-78
2021/03/22 07:12:34;;;;;;;11.17;5.07;;;7.00;84.00;;;;;;10460795;28;20197;-78
2021/03/22 07:17:36;;;;;;;15.10;5.00;;;7.00;83.40;;;;;;10452234;28;20268;-77
2021/03/22 07:22:38;;;;;;;15.07;6.30;;;7.10;83.70;;;;;;10445688;28;20220;-77
2021/03/22 07:27:43;;;;;;;13.30;5.30;;;7.10;83.70;;;;;;10458209;28;20225;-78
2021/03/22 07:32:51;;;;;;;14.70;6.27;;;7.10;82.60;;;;;;10459043;28;20227;-78
2021/03/22 07:38:02;;;;;;;15.03;5.20;;;7.20;83.30;;;;;;10459671;28;20221;-78
2021/03/22 07:43:16;;;;;;;9.60;4.57;;;7.20;82.90;;;;;;10459897;28;20193;-78
2021/03/22 07:48:50;;;;;;;15.23;4.80;;;7.30;83.00;;;;;;10458542;28;20233;-78
2021/03/22 07:53:57;;;;;;;12.83;4.37;;;7.40;82.00;;;;;;10439854;28;20241;-78
2021/03/22 07:59:16;;;;;;;13.10;4.90;;;7.40;82.50;;;;;;10459724;28;20221;-78
2021/03/22 08:04:44;;;;;;;12.27;5.00;;;7.50;81.90;;;;;;10463717;28;20213;-77
2021/03/22 08:10:00;;;;;;;14.60;4.23;;;7.50;80.70;;;;;;10482947;28;20300;-78
2021/03/22 08:15:16;;;;;;;12.67;3.87;;;7.60;80.20;;;;;;10475834;28;20215;-78
2021/03/22 08:20:21;;;;;;;8.50;3.90;;;7.60;80.10;;;;;;10480267;28;20269;-78
2021/03/22 08:25:40;;;;;;;11.17;4.20;;;7.70;80.70;;;;;;10473989;28;20500;-77
2021/03/22 08:30:48;;;;;;;7.30;3.37;;;7.80;80.00;;;;;;10476955;28;20196;-79
2021/03/22 08:35:56;;;;;;;7.37;3.30;;;8.00;79.10;;;;;;10475798;28;20231;-78
2021/03/22 08:40:59;;;;;;;9.23;4.10;;;8.20;77.40;;;;;;10457620;28;20220;-78
2021/03/22 08:46:13;;;;;;;9.23;3.20;;;8.20;76.40;;;;;;10474929;28;20213;-78
2021/03/22 08:51:20;;;;;;;11.10;4.23;;;8.40;75.90;;;;;;10455758;28;20278;-78
2021/03/22 08:56:35;;;;;;;9.87;3.87;;;8.40;76.60;;;;;;10455594;28;20692;-78
2021/03/22 09:01:40;;;;;;;9.67;3.70;;;8.40;77.30;;;;;;10456144;28;20216;-79
2021/03/22 09:07:05;;;;;;;13.30;4.97;;;8.50;77.00;;;;;;10440661;28;20256;-79
2021/03/22 09:12:30;;;;;;;7.70;3.00;;;8.40;77.60;;;;;;10455798;28;20189;-78
2021/03/22 09:17:55;;;;;;;10.27;3.77;;;8.40;76.90;;;;;;10455243;28;20209;-79
2021/03/22 09:23:00;;;;;;;10.57;3.07;;;8.30;77.20;;;;;;10455590;28;20189;-78
2021/03/22 09:28:34;;;;;;;7.17;2.30;;;8.30;76.60;;;;;;10438134;28;20235;-78
2021/03/22 09:33:53;;;;;;;8.10;3.00;;;8.20;76.80;;;;;;10448016;28;20223;-79
2021/03/22 09:38:55;;;;;;;5.17;2.93;;;8.20;76.60;;;;;;10458073;28;20687;-78
2021/03/22 09:44:12;;;;;;;6.50;2.93;;;8.40;77.30;;;;;;10455645;28;20267;-78
2021/03/22 09:49:22;;;;;;;6.50;2.77;;;8.60;77.60;;;;;;10455893;28;20872;-77
2021/03/22 09:54:37;;;;;;;6.83;3.03;;;8.80;76.70;;;;;;10455371;28;20223;-78
2021/03/22 10:00:15;;;;;;;10.53;2.97;;;8.70;75.70;;;;;;10454042;28;20237;-77
2021/03/22 10:05:21;;;;;;;9.33;2.97;;;8.80;76.40;;;;;;10449524;28;20412;-78
2021/03/22 10:10:29;;;;;;;7.60;2.90;;;9.00;76.40;;;;;;10458985;28;20189;-78
2021/03/22 10:15:34;;;;;;;7.63;3.47;;;9.20;75.90;;;;;;10479930;28;20224;-79
2021/03/22 10:20:41;;;;;;;8.97;3.40;;;9.40;74.60;;;;;;10491300;28;20212;-79
2021/03/22 10:25:47;;;;;;;4.07;2.60;;;9.50;73.40;;;;;;10476349;28;20262;-78
2021/03/22 10:30:58;;;;;;;6.83;2.60;;;9.60;72.10;;;;;;10469438;28;20217;-77
2021/03/22 10:36:03;;;;;;;5.20;2.30;;;9.50;72.50;;;;;;10479858;28;20240;-77
2021/03/22 10:41:26;;;;;;;3.07;2.73;;;9.30;72.10;;;;;;10476086;28;20688;-78
2021/03/22 10:46:31;;;;;;;4.27;2.50;;;9.10;72.30;;;;;;10474795;28;20228;-78
2021/03/22 10:51:40;;;;;;;6.43;2.93;;;8.90;73.30;;;;;;10474150;28;20189;-78
2021/03/22 10:56:57;;;;;;;6.80;3.30;;;8.80;74.20;;;;;;10468262;28;20571;-77
2021/03/22 11:02:02;;;;;;;4.57;2.97;;;8.80;74.80;;;;;;10455627;28;20212;-79
2021/03/22 11:07:14;;;;;;;8.20;2.63;;;8.80;74.20;;;;;;10429521;28;20225;-77
2021/03/22 11:12:16;;;;;;;3.80;2.73;;;8.70;74.50;;;;;;10454331;28;20251;-78
2021/03/22 11:17:20;;;;;;;7.10;3.23;;;8.70;75.10;;;;;;10447503;28;20279;-79
2021/03/22 11:22:32;;;;;;;6.73;3.40;;;8.80;75.60;;;;;;10458331;28;20335;-77
2021/03/22 11:27:56;;;;;;;4.37;3.10;;;9.10;75.80;;;;;;10428269;28;20240;-78
2021/03/22 11:32:58;;;;;;;4.27;2.70;;;9.20;74.80;;;;;;10450432;28;20286;-78
2021/03/22 11:38:03;;;;;;;7.80;3.30;;;9.30;73.90;;;;;;10457261;28;20221;-79
2021/03/22 11:43:24;;;;;;;3.83;3.00;;;9.30;72.10;;;;;;10462286;28;20201;-78
2021/03/22 11:48:38;;;;;;;3.13;2.80;;;9.30;72.70;;;;;;10463043;28;20208;-78
2021/03/22 11:54:01;;;;;;;4.53;2.83;;;9.30;73.10;;;;;;10459699;28;20219;-79
2021/03/22 11:59:08;;;;;;;7.20;3.23;;;9.40;73.30;;;;;;10464923;28;20221;-79
2021/03/22 12:04:17;;;;;;;3.33;2.77;;;9.60;73.10;;;;;;10459057;28;20634;-79
2021/03/22 12:09:19;;;;;;;4.50;2.50;;;9.80;73.10;;;;;;10464135;28;20256;-79
2021/03/22 12:14:21;;;;;;;4.60;3.00;;;10.00;70.30;;;;;;10462863;28;20575;-78
2021/03/22 12:19:29;;;;;;;4.27;2.97;;;10.00;69.90;;;;;;10461714;28;20317;-78
2021/03/22 12:24:32;;;;;;;10.47;4.27;;;10.00;70.30;;;;;;10484574;28;20286;-78
2021/03/22 12:29:34;;;;;;;6.20;2.53;;;10.00;70.50;;;;;;10489728;28;20197;-78
2021/03/22 12:34:36;;;;;;;6.67;3.37;;;9.90;70.80;;;;;;10474427;28;20220;-79
2021/03/22 12:39:38;;;;;;;7.53;4.03;;;9.70;72.20;;;;;;10466263;28;20217;-78
2021/03/22 12:44:40;;;;;;;7.50;3.40;;;9.60;71.80;;;;;;10470053;28;20221;-79
2021/03/22 12:49:42;;;;;;;5.73;3.57;;;9.40;72.80;;;;;;10450928;28;20190;-77
2021/03/22 12:54:44;;;;;;;6.63;3.03;;;9.30;72.60;;;;;;10471202;28;20223;-79
2021/03/22 12:59:46;;;;;;;6.40;3.40;;;9.20;73.20;;;;;;10481814;28;20714;-79
2021/03/22 13:04:48;;;;;;;9.73;3.67;;;9.10;73.60;;;;;;10473450;28;20217;-78
2021/03/22 13:09:51;;;;;;;8.77;2.90;;;8.90;73.80;;;;;;10462671;28;20200;-77
2021/03/22 13:14:54;;;;;;;9.80;4.80;;;8.90;73.70;;;;;;10476031;28;20242;-79
2021/03/22 13:19:56;;;;;;;6.67;3.50;;;8.80;73.60;;;;;;10473206;28;20213;-78
2021/03/22 13:24:59;;;;;;;4.13;3.67;;;8.80;74.30;;;;;;10472841;28;20231;-78
2021/03/22 13:30:01;;;;;;;8.50;3.87;;;8.70;74.80;;;;;;10471811;28;20665;-78
2021/03/22 13:35:03;;;;;;;5.00;3.10;;;8.80;74.50;;;;;;10464740;28;20625;-78
2021/03/22 13:40:07;;;;;;;3.13;2.37;;;9.00;74.10;;;;;;10469641;28;20228;-77
2021/03/22 13:45:18;;;;;;;5.43;3.80;;;9.10;72.70;;;;;;10461663;28;20288;-78
2021/03/22 13:50:20;;;;;;;6.90;4.30;;;9.20;72.70;;;;;;10481951;28;20246;-78
2021/03/22 13:55:23;;;;;;;7.60;5.00;;;9.20;73.50;;;;;;10475361;28;20220;-78
2021/03/22 14:00:26;;;;;;;6.90;4.20;;;9.20;73.90;;;;;;10455473;28;20221;-79
2021/03/22 14:05:27;;;;;;;8.83;4.90;;;9.10;74.60;;;;;;10448410;28;20213;-78
2021/03/22 14:10:30;;;;;;;5.70;4.40;;;9.10;74.80;;;;;;10468892;28;20196;-78
2021/03/22 14:15:34;;;;;;;3.83;3.50;;;9.20;75.80;;;;;;10459098;28;20249;-77
2021/03/22 14:20:37;;;;;;;6.27;4.20;;;9.20;75.10;;;;;;10453975;28;20255;-78
2021/03/22 14:25:40;;;;;;;6.10;4.10;;;9.20;74.80;;;;;;10458619;28;20217;-78
2021/03/22 14:30:42;;;;;;;7.87;4.70;;;9.10;75.10;;;;;;10475663;28;20201;-78
2021/03/22 14:35:44;;;;;;;6.83;5.30;;;9.00;75.70;;;;;;10459226;28;20241;-78
2021/03/22 14:40:46;;;;;;;7.03;5.00;;;8.90;76.10;;;;;;10475605;28;20285;-79
2021/03/22 14:45:48;;;;;;;8.20;5.00;;;8.90;76.60;;;;;;10433056;28;20592;-78
2021/03/22 14:50:50;;;;;;;6.07;4.63;;;8.90;77.40;;;;;;10444880;28;20579;-78
2021/03/22 14:55:53;;;;;;;8.43;4.70;;;8.90;77.30;;;;;;10456035;28;20233;-79
2021/03/22 15:00:55;;;;;;;11.30;5.07;;;8.80;76.60;;;;;;10459948;28;20232;-78
2021/03/22 15:05:56;;;;;;;5.80;4.70;;;8.80;76.60;;;;;;10463901;28;20305;-78
2021/03/22 15:10:59;;;;;;;4.77;4.10;;;8.70;77.00;;;;;;10461400;28;20283;-79
2021/03/22 15:16:01;;;;;;;5.17;4.37;;;8.70;77.10;;;;;;10432178;28;20296;-79
2021/03/22 15:21:02;;;;;;;8.70;5.03;;;8.60;77.40;;;;;;10450828;28;20270;-79
2021/03/22 15:26:05;;;;;;;6.53;4.40;;;8.60;77.70;;;;;;10453198;28;20237;-79
2021/03/22 15:31:07;;;;;;;8.43;5.70;;;8.60;77.60;;;;;;10460564;28;20205;-78
2021/03/22 15:36:11;;;;;;;11.17;4.30;;;8.60;77.80;;;;;;10434295;28;20228;-78
2021/03/22 15:41:16;;;;;;;5.67;4.37;;;8.50;77.80;;;;;;10450549;28;20217;-78
2021/03/22 15:46:18;;;;;;;5.27;4.77;;;8.60;78.30;;;;;;10446745;28;20217;-79
2021/03/22 15:51:21;;;;;;;5.00;4.13;;;8.50;77.90;;;;;;10435545;28;20201;-79
2021/03/22 15:56:33;;;;;;;4.87;4.30;;;8.50;78.70;;;;;;10446950;28;20839;-79
2021/03/22 16:01:35;;;;;;;13.20;6.13;;;8.50;78.70;;;;;;10451354;28;20217;-78
2021/03/22 16:06:36;;;;;;;6.17;5.10;;;8.50;79.20;;;;;;10456629;28;20247;-78
2021/03/22 16:11:39;;;;;;;7.10;5.10;;;8.40;78.90;;;;;;10445773;28;20197;-79
2021/03/22 16:16:41;;;;;;;6.87;5.60;;;8.40;79.60;;;;;;10451659;28;20233;-78
2021/03/22 16:21:42;;;;;;;8.40;5.80;;;8.30;79.50;;;;;;10461205;28;20270;-78
2021/03/22 16:26:45;;;;;;;7.47;5.30;;;8.30;79.90;;;;;;10462243;28;20415;-79
2021/03/22 16:31:49;;;;;;;6.40;4.67;;;8.30;80.20;;;;;;10440024;28;20194;-78
2021/03/22 16:37:00;;;;;;;7.73;5.60;;;8.30;80.20;;;;;;10432557;28;20228;-78
2021/03/22 16:42:04;;;;;;;8.20;5.50;;;8.30;80.30;;;;;;10450825;28;20251;-79
2021/03/22 16:47:08;;;;;;;8.07;6.10;;;8.30;80.10;;;;;;10454715;28;20728;-79
2021/03/22 16:52:28;;;;;;;8.33;5.70;;;8.40;80.30;;;;;;10452668;28;20200;-79
2021/03/22 16:57:30;;;;;;;8.33;5.20;;;8.40;80.80;;;;;;10467296;28;20736;-79
2021/03/22 17:02:32;;;;;;;5.57;4.90;;;8.40;80.40;;;;;;10435241;28;20231;-79
2021/03/22 17:07:34;;;;;;;6.33;5.37;;;8.40;80.60;;;;;;10449893;28;20278;-79
2021/03/22 17:12:36;;;;;;;7.10;4.80;;;8.40;80.90;;;;;;10469570;28;20202;-79
2021/03/22 17:17:40;;;;;;;6.50;5.60;;;8.40;80.20;;;;;;10462975;28;20521;-79
2021/03/22 17:22:43;;;;;;;6.87;4.93;;;8.30;79.90;;;;;;10446895;28;20228;-78
2021/03/22 17:27:50;;;;;;;6.10;5.30;;;8.30;80.20;;;;;;10430005;28;20232;-79
2021/03/22 17:32:52;;;;;;;6.80;5.30;;;8.30;80.90;;;;;;10449889;28;20201;-79
2021/03/22 17:37:54;;;;;;;6.57;5.63;;;8.30;80.50;;;;;;10432874;28;20239;-79
2021/03/22 17:42:57;;;;;;;8.93;5.53;;;8.30;81.10;;;;;;10470146;28;20248;-79
2021/03/22 17:48:02;;;;;;;8.17;5.50;;;8.20;81.50;;;;;;10450552;28;20252;-79
2021/03/22 17:53:05;;;;;;;8.07;5.80;;;8.20;80.50;;;;;;10437554;28;20732;-79
2021/03/22 17:58:08;;;;;;;5.83;4.87;;;8.20;80.90;;;;;;10455281;28;20197;-79
2021/03/22 18:03:14;;;;;;;6.70;5.13;;;8.20;81.30;;;;;;10432555;28;20276;-79
2021/03/22 18:08:16;;;;;;;7.93;5.07;;;8.20;81.10;;;;;;10448395;28;20713;-79
2021/03/22 18:13:22;;;;;;;8.10;5.63;;;8.10;81.30;;;;;;10422438;28;20210;-78
2021/03/22 18:18:23;;;;;;;6.00;5.40;;;8.10;81.70;;;;;;10442107;28;20649;-79
2021/03/22 18:23:25;;;;;;;7.97;5.40;;;8.10;81.90;;;;;;10453955;28;20308;-79
2021/03/22 18:28:29;;;;;;;6.50;5.70;;;8.10;82.20;;;;;;10444077;28;20687;-78
2021/03/22 18:33:30;;;;;;;6.30;5.67;;;8.10;82.20;;;;;;10440696;28;20221;-78
2021/03/22 18:38:32;;;;;;;8.03;5.27;;;8.00;82.30;;;;;;10452925;28;20248;-78
2021/03/22 18:43:37;;;;;;;7.40;5.37;;;8.00;81.60;;;;;;10466615;28;20233;-79
2021/03/22 18:48:39;;;;;;;6.00;5.40;;;8.00;82.20;;;;;;10478498;28;20626;-79
2021/03/22 18:53:41;;;;;;;8.60;6.00;;;8.00;82.60;;;;;;10454931;28;20217;-78
2021/03/22 18:58:44;;;;;;;11.83;6.10;;;8.00;82.80;;;;;;10459477;28;20657;-79
2021/03/22 19:03:45;;;;;;;10.50;6.10;;;8.00;82.60;;;;;;10457525;28;20274;-79
2021/03/22 19:08:48;;;;;;;7.57;6.20;;;8.00;82.40;;;;;;10467515;28;20201;-78
2021/03/22 19:13:51;;;;;;;5.83;5.33;;;8.00;81.70;;;;;;10441740;28;20284;-78
2021/03/22 19:18:53;;;;;;;6.40;5.80;;;8.00;82.40;;;;;;10452511;28;20201;-78
2021/03/22 19:23:54;;;;;;;10.40;5.93;;;8.00;82.20;;;;;;10457919;28;20626;-78
2021/03/22 19:28:58;;;;;;;7.73;6.03;;;8.00;82.70;;;;;;10445788;28;20197;-78
2021/03/22 19:34:01;;;;;;;10.00;5.87;;;8.00;83.70;;;;;;10455264;28;20248;-78
2021/03/22 19:39:04;;;;;;;7.17;5.80;;;8.00;82.90;;;;;;10452348;28;20559;-78
2021/03/22 19:44:07;;;;;;;12.27;6.57;;;8.00;82.80;;;;;;10453884;28;20737;-78
2021/03/22 19:49:08;;;;;;;11.80;7.00;;;8.00;83.40;;;;;;10439409;28;20200;-78
2021/03/22 19:54:12;;;;;;;7.77;6.33;;;8.10;83.30;;;;;;10444317;28;20217;-77
2021/03/22 19:59:14;;;;;;;11.60;7.20;;;8.10;83.70;;;;;;10445922;28;20223;-76
2021/03/22 20:04:16;;;;;;;7.30;5.50;;;8.10;83.80;;;;;;10434760;28;20309;-77
2021/03/22 20:09:17;;;;;;;5.17;4.63;;;8.10;83.00;;;;;;10451924;28;20298;-77
2021/03/22 20:14:20;;;;;;;7.20;6.10;;;8.10;83.20;;;;;;10444599;28;20316;-77
2021/03/22 20:19:25;;;;;;;6.20;5.57;;;8.00;82.10;;;;;;10444417;28;20227;-79
2021/03/22 20:24:26;;;;;;;9.60;5.80;;;8.00;82.00;;;;;;10492067;22;20602;-79
2021/03/22 20:29:29;;;;;;;6.53;5.80;;;8.00;82.60;;;;;;10534483;28;20206;-79
2021/03/22 20:34:30;;;;;;;8.17;6.00;;;8.00;82.40;;;;;;10536250;28;20230;-79
2021/03/22 20:39:32;;;;;;;8.70;5.47;;;8.00;82.90;;;;;;10536466;28;20218;-79
2021/03/22 20:44:35;;;;;;;7.30;5.73;;;7.90;82.70;;;;;;10527614;28;20219;-79
2021/03/22 20:49:36;;;;;;;7.60;5.57;;;8.00;81.90;;;;;;10529346;28;20195;-79
2021/03/22 20:54:38;;;;;;;8.17;6.13;;;8.00;82.40;;;;;;10535645;28;20223;-79
2021/03/22 20:59:41;;;;;;;8.47;5.10;;;8.00;81.80;;;;;;10536132;28;20211;-79
2021/03/22 21:04:43;;;;;;;6.33;5.30;;;8.00;82.90;;;;;;10511391;28;20224;-79
2021/03/22 21:09:44;;;;;;;5.83;5.33;;;8.00;82.20;;;;;;10523509;28;20282;-79
2021/03/22 21:14:47;;;;;;;6.60;5.27;;;8.00;82.20;;;;;;10526207;28;20306;-79
2021/03/22 21:19:49;;;;;;;6.23;5.57;;;8.00;82.80;;;;;;10526902;28;20212;-79
2021/03/22 21:24:50;;;;;;;8.40;6.10;;;8.00;83.30;;;;;;10532134;28;20633;-79
2021/03/22 21:29:53;;;;;;;8.93;6.80;;;8.00;82.90;;;;;;10531964;28;20196;-79
2021/03/22 21:34:54;;;;;;;11.63;6.60;;;8.10;82.90;;;;;;10539954;28;20223;-79
2021/03/22 21:39:56;;;;;;;7.60;6.63;;;8.10;83.10;;;;;;10504789;28;20221;-78
2021/03/22 21:44:58;;;;;;;8.90;5.77;;;8.10;83.00;;;;;;10530811;28;20368;-78
2021/03/22 21:50:00;;;;;;;8.50;6.30;;;8.10;83.10;;;;;;10528993;28;20278;-78
2021/03/22 21:55:02;;;;;;;6.83;6.10;;;8.00;82.70;;;;;;10528898;28;20293;-78
2021/03/22 22:00:09;;;;;;;9.17;6.90;;;8.10;82.50;;;;;;10528605;28;20245;-78
2021/03/22 22:05:11;;;;;;;6.47;5.80;;;8.00;84.00;;;;;;10529010;28;20238;-78
2021/03/22 22:10:14;;;;;;;9.23;6.83;;;8.00;83.30;;;;;;10511487;28;20996;-78
2021/03/22 22:15:20;;;;;;;12.20;8.53;;;7.90;84.10;;;;;;10545450;28;20235;-78
2021/03/22 22:20:23;;;;;;;11.43;8.83;;;8.00;84.00;;;;;;10529500;28;20686;-78
2021/03/22 22:25:26;;;;;;;8.43;7.60;;;8.00;84.90;;;;;;10527058;28;20272;-78
2021/03/22 22:30:30;;;;;;;9.57;7.67;;;7.90;84.80;;;;;;10529565;28;20196;-78
2021/03/22 22:35:34;;;;;;;10.60;7.37;;;7.90;84.90;;;;;;10536119;28;20212;-78
2021/03/22 22:40:40;;;;;;;11.43;8.33;;;7.90;85.10;;;;;;10525893;28;20232;-78
2021/03/22 22:45:42;;;;;;;12.00;9.40;;;7.90;85.60;;;;;;10517349;28;20247;-78
2021/03/22 22:50:44;;;;;;;12.70;9.00;;;7.90;85.40;;;;;;10515351;28;20573;-78
2021/03/22 22:55:46;;;;;;;11.57;9.70;;;7.90;85.30;;;;;;10515630;28;20220;-78
2021/03/22 23:00:49;;;;;;;10.17;8.90;;;8.00;86.30;;;;;;10514494;28;20204;-78
2021/03/22 23:05:52;;;;;;;13.60;9.43;;;8.00;86.50;;;;;;10545836;28;20220;-78
2021/03/22 23:10:57;;;;;;;13.70;9.70;;;8.00;86.50;;;;;;10517371;28;20240;-78
2021/03/22 23:15:59;;;;;;;17.23;10.67;;;8.00;87.10;;;;;;10521412;28;20216;-78
2021/03/22 23:21:06;;;;;;;15.40;12.10;;;8.00;86.90;;;;;;10527602;28;20299;-78
2021/03/22 23:26:08;;;;;;;13.13;11.47;;;8.10;86.40;;;;;;10528795;28;20227;-78
2021/03/22 23:31:16;;;;;;;14.50;10.93;;;8.00;87.00;;;;;;10518749;28;20211;-78
2021/03/22 23:36:19;;;;;;;15.30;9.77;;;8.10;87.20;;;;;;10510341;28;20224;-78
2021/03/22 23:41:22;;;;;;;11.83;9.30;;;8.10;86.70;;;;;;10527471;28;20303;-78
2021/03/22 23:46:24;;;;;;;12.73;10.70;;;8.10;86.90;;;;;;10526282;28;20280;-78
2021/03/22 23:51:26;;;;;;;11.53;9.43;;;8.10;86.80;;;;;;10525000;28;20204;-78
2021/03/22 23:56:27;;;;;;;15.30;10.17;;;8.10;87.10;;;;;;10527878;28;20303;-78
